createdAt,value
2019-05-13T00:00:40.876Z,0.00
2019-05-13T00:01:40.876Z,0.00
2019-05-13T00:02:40.871Z,0.00
2019-05-13T00:03:40.852Z,0.00
2019-05-13T00:04:40.845Z,0.00
2019-05-13T00:05:40.845Z,0.00
2019-05-13T00:06:53.156Z,0.00
2019-05-13T00:07:40.817Z,0.00
2019-05-13T00:08:40.810Z,0.00
2019-05-13T00:09:40.801Z,0.00
2019-05-13T00:10:40.788Z,0.00
2019-05-13T00:11:40.779Z,0.00
2019-05-13T00:12:40.775Z,0.00
2019-05-13T00:13:40.757Z,0.00
2019-05-13T00:14:40.750Z,0.00
2019-05-13T00:15:40.740Z,0.00
2019-05-13T00:16:40.733Z,0.00
2019-05-13T00:17:40.722Z,0.00
2019-05-13T00:18:40.709Z,0.00
2019-05-13T00:19:40.703Z,0.00
2019-05-13T00:20:40.693Z,0.00
2019-05-13T00:21:40.685Z,0.00
2019-05-13T00:22:40.675Z,0.00
2019-05-13T00:23:40.665Z,0.00
2019-05-13T00:24:40.652Z,0.00
2019-05-13T00:25:40.651Z,0.00
2019-05-13T00:26:40.635Z,0.00
2019-05-13T00:27:40.629Z,0.00
2019-05-13T00:28:40.628Z,0.00
2019-05-13T00:29:40.606Z,0.00
2019-05-13T00:30:40.597Z,0.00
2019-05-13T00:31:40.593Z,0.00
2019-05-13T00:32:40.599Z,0.00
2019-05-13T00:33:40.571Z,0.00
2019-05-13T00:34:40.578Z,0.00
2019-05-13T00:35:40.547Z,0.00
2019-05-13T00:36:40.542Z,0.00
2019-05-13T00:37:40.527Z,0.00
2019-05-13T00:38:40.522Z,0.00
2019-05-13T00:39:40.510Z,0.00
2019-05-13T00:40:40.503Z,0.00
2019-05-13T00:41:40.492Z,0.00
2019-05-13T00:42:40.481Z,0.00
2019-05-13T00:43:40.468Z,0.00
2019-05-13T00:44:40.473Z,0.00
2019-05-13T00:45:40.456Z,0.00
2019-05-13T00:46:40.448Z,0.00
2019-05-13T00:47:40.439Z,0.00
2019-05-13T00:48:40.420Z,0.00
2019-05-13T00:49:40.412Z,0.00
2019-05-13T00:50:40.415Z,0.00
2019-05-13T00:51:40.395Z,0.00
2019-05-13T00:52:40.387Z,0.00
2019-05-13T00:53:40.374Z,0.00
2019-05-13T00:54:40.369Z,0.00
2019-05-13T00:55:40.360Z,0.00
2019-05-13T00:56:40.345Z,0.00
2019-05-13T00:57:40.335Z,0.00
2019-05-13T00:58:40.333Z,0.00
2019-05-13T00:59:40.323Z,0.00
2019-05-13T01:00:40.310Z,0.00
2019-05-13T01:01:40.313Z,0.00
2019-05-13T01:02:40.292Z,0.00
2019-05-13T01:03:40.279Z,0.00
2019-05-13T01:04:40.274Z,0.00
2019-05-13T01:05:40.275Z,0.00
2019-05-13T01:06:40.260Z,0.00
2019-05-13T01:07:40.241Z,0.00
2019-05-13T01:08:40.237Z,0.00
2019-05-13T01:09:40.218Z,0.00
2019-05-13T01:10:40.218Z,0.00
2019-05-13T01:11:40.207Z,0.00
2019-05-13T01:12:40.194Z,0.00
2019-05-13T01:13:40.187Z,0.00
2019-05-13T01:14:40.183Z,0.00
2019-05-13T01:15:40.168Z,0.00
2019-05-13T01:16:40.154Z,0.00
2019-05-13T01:17:40.147Z,0.00
2019-05-13T01:18:40.139Z,0.00
2019-05-13T01:19:40.130Z,0.00
2019-05-13T01:20:40.128Z,0.00
2019-05-13T01:21:40.111Z,0.00
2019-05-13T01:22:40.097Z,0.00
2019-05-13T01:23:40.089Z,0.00
2019-05-13T01:24:40.078Z,0.00
2019-05-13T01:25:40.071Z,0.00
2019-05-13T01:26:40.061Z,0.00
2019-05-13T01:27:40.048Z,0.00
2019-05-13T01:28:40.037Z,0.00
2019-05-13T01:29:40.031Z,0.00
2019-05-13T01:30:40.018Z,0.00
2019-05-13T01:31:40.009Z,0.00
2019-05-13T01:32:39.997Z,0.00
2019-05-13T01:33:39.986Z,0.00
2019-05-13T01:34:39.978Z,0.00
2019-05-13T01:35:39.967Z,0.00
2019-05-13T01:36:39.956Z,0.00
2019-05-13T01:37:43.403Z,0.00
2019-05-13T01:38:39.939Z,0.00
2019-05-13T01:39:39.943Z,0.00
2019-05-13T01:40:39.922Z,0.00
2019-05-13T01:41:39.909Z,0.00
2019-05-13T01:42:39.934Z,0.00
2019-05-13T01:43:39.893Z,0.00
2019-05-13T01:44:39.886Z,0.00
2019-05-13T01:45:39.889Z,0.00
2019-05-13T01:46:39.865Z,0.00
2019-05-13T01:47:39.850Z,0.00
2019-05-13T01:48:39.837Z,0.00
2019-05-13T01:49:39.835Z,0.00
2019-05-13T01:50:39.826Z,0.00
2019-05-13T01:51:39.816Z,0.00
2019-05-13T01:52:39.802Z,0.00
2019-05-13T01:53:39.800Z,0.00
2019-05-13T01:54:39.778Z,0.00
2019-05-13T01:55:39.770Z,0.00
2019-05-13T01:56:39.765Z,0.00
2019-05-13T01:57:39.755Z,0.00
2019-05-13T01:58:39.746Z,0.00
2019-05-13T01:59:39.730Z,0.00
2019-05-13T02:00:39.726Z,0.00
2019-05-13T02:01:39.715Z,0.00
2019-05-13T02:02:39.704Z,0.00
2019-05-13T02:03:39.694Z,0.00
2019-05-13T02:04:39.688Z,0.00
2019-05-13T02:05:39.698Z,0.00
2019-05-13T02:06:39.672Z,0.00
2019-05-13T02:07:53.691Z,0.00
2019-05-13T02:08:39.646Z,0.00
2019-05-13T02:09:39.644Z,0.00
2019-05-13T02:10:39.624Z,0.00
2019-05-13T02:11:39.618Z,0.00
2019-05-13T02:12:39.606Z,0.00
2019-05-13T02:13:39.597Z,0.00
2019-05-13T02:14:39.600Z,0.00
2019-05-13T02:15:39.572Z,0.00
2019-05-13T02:16:39.587Z,0.00
2019-05-13T02:17:39.553Z,0.00
2019-05-13T02:18:39.543Z,0.00
2019-05-13T02:19:39.535Z,0.00
2019-05-13T02:20:39.543Z,0.00
2019-05-13T02:21:39.513Z,0.00
2019-05-13T02:22:39.509Z,0.00
2019-05-13T02:23:39.494Z,0.00
2019-05-13T02:24:39.489Z,0.00
2019-05-13T02:25:39.475Z,0.00
2019-05-13T02:26:39.483Z,0.00
2019-05-13T02:27:39.458Z,0.00
2019-05-13T02:28:39.450Z,0.00
2019-05-13T02:29:39.440Z,0.00
2019-05-13T02:30:39.447Z,0.00
2019-05-13T02:31:46.443Z,0.00
2019-05-13T02:32:42.553Z,0.00
2019-05-13T02:33:42.177Z,0.00
2019-05-13T02:34:43.306Z,0.00
2019-05-13T02:35:43.079Z,0.00
2019-05-13T02:36:39.361Z,0.00
2019-05-13T02:37:42.962Z,0.00
2019-05-13T02:38:42.481Z,0.00
2019-05-13T02:39:42.546Z,0.00
2019-05-13T02:40:42.878Z,0.00
2019-05-13T02:41:39.315Z,0.00
2019-05-13T02:42:39.329Z,0.00
2019-05-13T02:43:42.122Z,0.00
2019-05-13T02:44:39.301Z,0.00
2019-05-13T02:45:42.666Z,0.00
2019-05-13T02:46:39.269Z,0.00
2019-05-13T02:47:39.256Z,0.00
2019-05-13T02:48:41.998Z,0.00
2019-05-13T02:49:42.132Z,0.00
2019-05-13T02:50:39.226Z,0.00
2019-05-13T02:51:42.594Z,0.00
2019-05-13T02:52:39.201Z,0.00
2019-05-13T02:53:39.223Z,0.00
2019-05-13T02:54:42.450Z,0.00
2019-05-13T02:55:39.172Z,0.00
2019-05-13T02:56:41.580Z,0.00
2019-05-13T02:57:43.261Z,0.00
2019-05-13T02:58:42.558Z,0.00
2019-05-13T02:59:42.032Z,0.00
2019-05-13T03:00:39.123Z,0.00
2019-05-13T03:01:39.119Z,0.00
2019-05-13T03:02:39.104Z,0.00
2019-05-13T03:03:39.100Z,4.00
2019-05-13T03:04:39.084Z,4.00
2019-05-13T03:05:39.072Z,0.00
2019-05-13T03:06:39.063Z,4.00
2019-05-13T03:07:42.229Z,4.00
2019-05-13T03:08:46.231Z,4.00
2019-05-13T03:09:42.061Z,4.00
2019-05-13T03:10:39.019Z,4.00
2019-05-13T03:11:41.555Z,8.00
2019-05-13T03:12:41.577Z,8.00
2019-05-13T03:13:38.991Z,8.00
2019-05-13T03:14:39.007Z,8.00
2019-05-13T03:15:38.968Z,8.00
2019-05-13T03:16:38.988Z,12.00
2019-05-13T03:17:38.949Z,12.00
2019-05-13T03:18:38.950Z,12.00
2019-05-13T03:19:38.932Z,20.00
2019-05-13T03:20:38.923Z,20.00
2019-05-13T03:21:38.906Z,24.00
2019-05-13T03:22:38.902Z,28.00
2019-05-13T03:23:38.890Z,32.00
2019-05-13T03:24:38.880Z,36.00
2019-05-13T03:25:38.872Z,40.00
2019-05-13T03:26:38.856Z,44.00
2019-05-13T03:27:38.854Z,52.00
2019-05-13T03:28:38.853Z,60.00
2019-05-13T03:29:38.830Z,64.00
2019-05-13T03:30:38.849Z,72.00
2019-05-13T03:31:38.816Z,80.00
2019-05-13T03:32:46.163Z,92.00
2019-05-13T03:33:45.383Z,100.00
2019-05-13T03:34:44.605Z,108.00
2019-05-13T03:35:44.763Z,120.00
2019-05-13T03:36:44.803Z,132.00
2019-05-13T03:37:38.748Z,144.00
2019-05-13T03:38:58.822Z,156.00
2019-05-13T03:39:38.725Z,172.00
2019-05-13T03:40:42.195Z,188.00
2019-05-13T03:41:42.078Z,200.00
2019-05-13T03:42:38.693Z,220.00
2019-05-13T03:43:38.688Z,236.00
2019-05-13T03:44:38.677Z,256.00
2019-05-13T03:45:38.669Z,276.00
2019-05-13T03:46:42.199Z,292.00
2019-05-13T03:47:38.650Z,316.00
2019-05-13T03:48:38.633Z,336.00
2019-05-13T03:49:38.622Z,356.00
2019-05-13T03:50:38.616Z,376.00
2019-05-13T03:51:38.611Z,400.00
2019-05-13T03:52:38.592Z,420.00
2019-05-13T03:53:38.581Z,444.00
2019-05-13T03:54:38.573Z,468.00
2019-05-13T03:55:38.565Z,492.00
2019-05-13T03:56:38.553Z,520.00
2019-05-13T03:57:38.539Z,544.00
2019-05-13T03:58:38.531Z,568.00
2019-05-13T03:59:38.522Z,592.00
2019-05-13T04:00:38.512Z,616.00
2019-05-13T04:01:38.509Z,644.00
2019-05-13T04:02:38.495Z,668.00
2019-05-13T04:03:38.481Z,692.00
2019-05-13T04:04:38.473Z,720.00
2019-05-13T04:05:38.461Z,744.00
2019-05-13T04:06:38.450Z,772.00
2019-05-13T04:07:38.440Z,796.00
2019-05-13T04:08:38.434Z,824.00
2019-05-13T04:09:38.417Z,848.00
2019-05-13T04:10:38.411Z,872.00
2019-05-13T04:11:38.404Z,908.00
2019-05-13T04:12:38.400Z,936.00
2019-05-13T04:13:38.386Z,960.00
2019-05-13T04:14:38.370Z,980.00
2019-05-13T04:15:38.360Z,1000.00
2019-05-13T04:16:38.347Z,1024.00
2019-05-13T04:17:38.340Z,1044.00
2019-05-13T04:18:38.337Z,1068.00
2019-05-13T04:19:38.326Z,1092.00
2019-05-13T04:20:38.304Z,1116.00
2019-05-13T04:21:38.297Z,1140.00
2019-05-13T04:22:38.282Z,1160.00
2019-05-13T04:23:38.282Z,1188.00
2019-05-13T04:24:38.269Z,1208.00
2019-05-13T04:25:39.820Z,1232.00
2019-05-13T04:26:38.267Z,1260.00
2019-05-13T04:27:38.234Z,1284.00
2019-05-13T04:28:38.224Z,1316.00
2019-05-13T04:29:38.220Z,1408.00
2019-05-13T04:30:38.214Z,1456.00
2019-05-13T04:31:38.199Z,1468.00
2019-05-13T04:32:38.183Z,1484.00
2019-05-13T04:33:38.175Z,1512.00
2019-05-13T04:34:38.164Z,1560.00
2019-05-13T04:35:38.151Z,1600.00
2019-05-13T04:36:38.146Z,1608.00
2019-05-13T04:37:38.133Z,1620.00
2019-05-13T04:38:38.123Z,1644.00
2019-05-13T04:39:47.512Z,1716.00
2019-05-13T04:40:38.108Z,1796.00
2019-05-13T04:41:38.092Z,1832.00
2019-05-13T04:42:38.115Z,1840.00
2019-05-13T04:43:38.073Z,1812.00
2019-05-13T04:44:38.069Z,1792.00
2019-05-13T04:45:38.047Z,1812.00
2019-05-13T04:46:38.050Z,1868.00
2019-05-13T04:47:38.027Z,2056.00
2019-05-13T04:48:40.526Z,2364.00
2019-05-13T04:49:38.009Z,2888.00
2019-05-13T04:50:38.007Z,3444.00
2019-05-13T04:51:37.985Z,3848.00
2019-05-13T04:52:37.987Z,4268.00
2019-05-13T04:53:37.970Z,4704.00
2019-05-13T04:54:37.956Z,5004.00
2019-05-13T04:55:37.953Z,5156.00
2019-05-13T04:56:37.945Z,4880.00
2019-05-13T04:57:37.929Z,4360.00
2019-05-13T04:58:37.925Z,4028.00
2019-05-13T04:59:41.419Z,3728.00
2019-05-13T05:00:37.901Z,3564.00
2019-05-13T05:01:40.120Z,2792.00
2019-05-13T05:02:44.693Z,2704.00
2019-05-13T05:03:44.689Z,3408.00
2019-05-13T05:04:37.858Z,3596.00
2019-05-13T05:05:37.855Z,3988.00
2019-05-13T05:06:37.853Z,4272.00
2019-05-13T05:07:37.831Z,4208.00
2019-05-13T05:08:37.823Z,4548.00
2019-05-13T05:09:45.232Z,4908.00
2019-05-13T05:10:39.029Z,5908.00
2019-05-13T05:11:37.798Z,6824.00
2019-05-13T05:12:37.785Z,6964.00
2019-05-13T05:13:37.784Z,6340.00
2019-05-13T05:14:37.766Z,5932.00
2019-05-13T05:15:37.766Z,6088.00
2019-05-13T05:16:41.099Z,7900.00
2019-05-13T05:17:37.738Z,8136.00
2019-05-13T05:18:37.733Z,4868.00
2019-05-13T05:19:37.722Z,6728.00
2019-05-13T05:20:37.733Z,8296.00
2019-05-13T05:21:37.728Z,8892.00
2019-05-13T05:22:37.707Z,8764.00
2019-05-13T05:23:37.689Z,8016.00
2019-05-13T05:24:37.677Z,8516.00
2019-05-13T05:25:37.668Z,8792.00
2019-05-13T05:26:37.670Z,8508.00
2019-05-13T05:27:37.659Z,8524.00
2019-05-13T05:28:37.660Z,8192.00
2019-05-13T05:29:37.642Z,7852.00
2019-05-13T05:30:37.629Z,7844.00
2019-05-13T05:31:37.624Z,8236.00
2019-05-13T05:32:37.618Z,9044.00
2019-05-13T05:33:37.609Z,9160.00
2019-05-13T05:34:37.600Z,9640.00
2019-05-13T05:35:37.587Z,9568.00
2019-05-13T05:36:37.584Z,10116.00
2019-05-13T05:37:37.576Z,10416.00
2019-05-13T05:38:37.569Z,10404.00
2019-05-13T05:39:37.560Z,11720.00
2019-05-13T05:40:37.549Z,12764.00
2019-05-13T05:41:37.550Z,14108.00
2019-05-13T05:42:37.550Z,15200.00
2019-05-13T05:43:37.530Z,15872.00
2019-05-13T05:44:37.533Z,16288.00
2019-05-13T05:45:37.521Z,15200.00
2019-05-13T05:46:37.516Z,16032.00
2019-05-13T05:47:37.504Z,15776.00
2019-05-13T05:48:37.496Z,17152.00
2019-05-13T05:49:37.500Z,17984.00
2019-05-13T05:50:37.493Z,18080.00
2019-05-13T05:51:37.478Z,17888.00
2019-05-13T05:52:37.477Z,18432.00
2019-05-13T05:53:37.468Z,18880.00
2019-05-13T05:54:37.465Z,19264.00
2019-05-13T05:55:37.464Z,18848.00
2019-05-13T05:56:37.456Z,18880.00
2019-05-13T05:57:37.448Z,19712.00
2019-05-13T05:58:37.450Z,20672.00
2019-05-13T05:59:37.440Z,20640.00
2019-05-13T06:00:37.443Z,21024.00
2019-05-13T06:01:37.572Z,20544.00
2019-05-13T06:02:37.424Z,19872.00
2019-05-13T06:03:37.426Z,19584.00
2019-05-13T06:04:37.413Z,19104.00
2019-05-13T06:05:37.414Z,19648.00
2019-05-13T06:06:37.406Z,20704.00
2019-05-13T06:07:37.405Z,20384.00
2019-05-13T06:08:37.402Z,20192.00
2019-05-13T06:09:37.393Z,19360.00
2019-05-13T06:10:49.139Z,19264.00
2019-05-13T06:11:37.390Z,18976.00
2019-05-13T06:12:37.411Z,20768.00
2019-05-13T06:13:37.381Z,19840.00
2019-05-13T06:14:37.381Z,21216.00
2019-05-13T06:15:37.381Z,17888.00
2019-05-13T06:16:37.379Z,14064.00
2019-05-13T06:17:37.372Z,16096.00
2019-05-13T06:18:37.370Z,13360.00
2019-05-13T06:19:37.361Z,9036.00
2019-05-13T06:20:37.375Z,8780.00
2019-05-13T06:21:37.362Z,7776.00
2019-05-13T06:22:37.349Z,7868.00
2019-05-13T06:23:37.355Z,8976.00
2019-05-13T06:24:37.348Z,11068.00
2019-05-13T06:25:37.346Z,11960.00
2019-05-13T06:26:37.352Z,16288.00
2019-05-13T06:27:37.333Z,20064.00
2019-05-13T06:28:37.333Z,22208.00
2019-05-13T06:29:37.339Z,23008.00
2019-05-13T06:30:37.331Z,19488.00
2019-05-13T06:31:37.324Z,25632.00
2019-05-13T06:32:37.322Z,21984.00
2019-05-13T06:33:37.314Z,19776.00
2019-05-13T06:34:37.310Z,17120.00
2019-05-13T06:35:37.316Z,25056.00
2019-05-13T06:36:37.300Z,25856.00
2019-05-13T06:37:37.297Z,26432.00
2019-05-13T06:38:37.293Z,22400.00
2019-05-13T06:39:37.286Z,25728.00
2019-05-13T06:40:37.289Z,14812.00
2019-05-13T06:41:37.296Z,22464.00
2019-05-13T06:42:37.282Z,16992.00
2019-05-13T06:43:37.271Z,13880.00
2019-05-13T06:44:37.271Z,23680.00
2019-05-13T06:45:37.261Z,16704.00
2019-05-13T06:46:37.282Z,20384.00
2019-05-13T06:47:37.259Z,19424.00
2019-05-13T06:48:37.255Z,19712.00
2019-05-13T06:49:37.265Z,20160.00
2019-05-13T06:50:37.244Z,23840.00
2019-05-13T06:51:37.241Z,25888.00
2019-05-13T06:52:37.265Z,25792.00
2019-05-13T06:53:37.231Z,23648.00
2019-05-13T06:54:37.231Z,23552.00
2019-05-13T06:55:37.221Z,23360.00
2019-05-13T06:56:37.219Z,21728.00
2019-05-13T06:57:37.218Z,18368.00
2019-05-13T06:58:37.218Z,20736.00
2019-05-13T06:59:37.213Z,21312.00
2019-05-13T07:00:37.216Z,23424.00
2019-05-13T07:01:37.204Z,23904.00
2019-05-13T07:02:37.197Z,23392.00
2019-05-13T07:03:37.199Z,18784.00
2019-05-13T07:04:37.192Z,20832.00
2019-05-13T07:05:37.191Z,27520.00
2019-05-13T07:06:37.182Z,28704.00
2019-05-13T07:07:37.182Z,31200.00
2019-05-13T07:08:37.168Z,29984.00
2019-05-13T07:09:37.185Z,31360.00
2019-05-13T07:10:37.170Z,30080.00
2019-05-13T07:11:37.220Z,29024.00
2019-05-13T07:12:37.212Z,29984.00
2019-05-13T07:13:37.163Z,26112.00
2019-05-13T07:14:37.154Z,27904.00
2019-05-13T07:15:37.156Z,35872.00
2019-05-13T07:16:37.157Z,37728.00
2019-05-13T07:17:37.149Z,30272.00
2019-05-13T07:18:37.145Z,32576.00
2019-05-13T07:19:37.144Z,31584.00
2019-05-13T07:20:37.144Z,24928.00
2019-05-13T07:21:37.141Z,17408.00
2019-05-13T07:22:37.137Z,15408.00
2019-05-13T07:23:37.134Z,14640.00
2019-05-13T07:24:37.143Z,16416.00
2019-05-13T07:25:37.130Z,17440.00
2019-05-13T07:26:37.130Z,18496.00
2019-05-13T07:27:37.127Z,19648.00
2019-05-13T07:28:37.127Z,21728.00
2019-05-13T07:29:37.123Z,30848.00
2019-05-13T07:30:37.146Z,37760.00
2019-05-13T07:31:37.123Z,34592.00
2019-05-13T07:32:37.117Z,34368.00
2019-05-13T07:33:37.206Z,32544.00
2019-05-13T07:34:37.118Z,32192.00
2019-05-13T07:35:38.159Z,30432.00
2019-05-13T07:36:37.110Z,39616.00
2019-05-13T07:37:37.111Z,41376.00
2019-05-13T07:38:37.113Z,37728.00
2019-05-13T07:39:37.115Z,36576.00
2019-05-13T07:40:37.109Z,39424.00
2019-05-13T07:41:39.720Z,44736.00
2019-05-13T07:42:37.106Z,42976.00
2019-05-13T07:43:37.138Z,44224.00
2019-05-13T07:44:37.104Z,43680.00
2019-05-13T07:45:37.102Z,43296.00
2019-05-13T07:46:37.105Z,42240.00
2019-05-13T07:47:37.106Z,47616.00
2019-05-13T07:48:37.111Z,43616.00
2019-05-13T07:49:37.114Z,34048.00
2019-05-13T07:50:51.672Z,36768.00
2019-05-13T07:51:37.109Z,38336.00
2019-05-13T07:52:37.113Z,46816.00
2019-05-13T07:53:37.107Z,40896.00
2019-05-13T07:54:37.106Z,47232.00
2019-05-13T07:55:37.116Z,45152.00
2019-05-13T07:56:37.111Z,48448.00
2019-05-13T07:57:37.114Z,36064.00
2019-05-13T07:58:37.847Z,54528.00
2019-05-13T07:59:37.114Z,47360.00
2019-05-13T08:00:37.114Z,39584.00
2019-05-13T08:01:37.117Z,48576.00
2019-05-13T08:02:37.122Z,53248.00
2019-05-13T08:03:37.212Z,55136.00
2019-05-13T08:04:37.125Z,55072.00
2019-05-13T08:05:37.123Z,55584.00
2019-05-13T08:06:37.127Z,53760.00
2019-05-13T08:07:37.127Z,52096.00
2019-05-13T08:08:37.127Z,54400.00
2019-05-13T08:09:37.131Z,56608.00
2019-05-13T08:10:37.127Z,59584.00
2019-05-13T08:11:56.479Z,55616.00
2019-05-13T08:12:37.144Z,54656.00
2019-05-13T08:13:37.138Z,48448.00
2019-05-13T08:14:37.142Z,44448.00
2019-05-13T08:15:37.146Z,22080.00
2019-05-13T08:16:37.148Z,21248.00
2019-05-13T08:17:41.065Z,21248.00
2019-05-13T08:18:37.152Z,21856.00
2019-05-13T08:19:37.155Z,24320.00
2019-05-13T08:20:37.157Z,32640.00
2019-05-13T08:21:37.156Z,31744.00
2019-05-13T08:22:37.165Z,44992.00
2019-05-13T08:23:37.166Z,59488.00
2019-05-13T08:24:37.167Z,58816.00
2019-05-13T08:25:37.172Z,59520.00
2019-05-13T08:26:38.124Z,61152.00
2019-05-13T08:27:37.176Z,57920.00
2019-05-13T08:28:52.693Z,59392.00
2019-05-13T08:29:37.190Z,61792.00
2019-05-13T08:30:37.190Z,58112.00
2019-05-13T08:31:37.183Z,57344.00
2019-05-13T08:32:37.195Z,60608.00
2019-05-13T08:33:37.198Z,62944.00
2019-05-13T08:34:37.200Z,63584.00
2019-05-13T08:35:37.204Z,64416.00
2019-05-13T08:36:39.442Z,64192.00
2019-05-13T08:37:37.275Z,63264.00
2019-05-13T08:38:37.219Z,63232.00
2019-05-13T08:39:38.583Z,63488.00
2019-05-13T08:40:37.221Z,62336.00
2019-05-13T08:41:37.227Z,60800.00
2019-05-13T08:42:37.227Z,57216.00
2019-05-13T08:43:37.237Z,62528.00
2019-05-13T08:44:37.239Z,66048.00
2019-05-13T08:45:37.243Z,66336.00
2019-05-13T08:46:37.242Z,64480.00
2019-05-13T08:47:37.251Z,66048.00
2019-05-13T08:48:37.250Z,65920.00
2019-05-13T08:49:37.258Z,66752.00
2019-05-13T08:50:37.260Z,67520.00
2019-05-13T08:51:37.264Z,66368.00
2019-05-13T08:52:37.270Z,65440.00
2019-05-13T08:53:37.267Z,66976.00
2019-05-13T08:54:37.279Z,68736.00
2019-05-13T08:55:37.284Z,72832.00
2019-05-13T08:56:37.286Z,71232.00
2019-05-13T08:57:37.302Z,70432.00
2019-05-13T08:58:37.295Z,72800.00
2019-05-13T08:59:37.298Z,72576.00
2019-05-13T09:00:37.301Z,66912.00
2019-05-13T09:01:37.305Z,66688.00
2019-05-13T09:02:37.313Z,69696.00
2019-05-13T09:03:37.318Z,71328.00
2019-05-13T09:04:37.341Z,68192.00
2019-05-13T09:05:37.326Z,61088.00
2019-05-13T09:06:37.335Z,63072.00
2019-05-13T09:07:37.331Z,64768.00
2019-05-13T09:08:37.336Z,74080.00
2019-05-13T09:09:37.342Z,73952.00
2019-05-13T09:10:37.345Z,72992.00
2019-05-13T09:11:37.368Z,71552.00
2019-05-13T09:12:40.312Z,74432.00
2019-05-13T09:13:37.368Z,77344.00
2019-05-13T09:14:37.369Z,76864.00
2019-05-13T09:15:37.367Z,75584.00
2019-05-13T09:16:37.373Z,76736.00
2019-05-13T09:17:37.379Z,77248.00
2019-05-13T09:18:37.383Z,79328.00
2019-05-13T09:19:37.384Z,78496.00
2019-05-13T09:20:37.389Z,77984.00
2019-05-13T09:21:37.392Z,70368.00
2019-05-13T09:22:37.394Z,76000.00
2019-05-13T09:23:37.404Z,75904.00
2019-05-13T09:24:37.987Z,80352.00
2019-05-13T09:25:37.415Z,82208.00
2019-05-13T09:26:37.422Z,83040.00
2019-05-13T09:27:37.421Z,81888.00
2019-05-13T09:28:37.430Z,82336.00
2019-05-13T09:29:37.437Z,83552.00
2019-05-13T09:30:37.437Z,84512.00
2019-05-13T09:31:37.442Z,85952.00
2019-05-13T09:32:37.444Z,85184.00
2019-05-13T09:33:37.449Z,85024.00
2019-05-13T09:34:37.461Z,88928.00
2019-05-13T09:35:37.460Z,92384.00
2019-05-13T09:36:37.496Z,91392.00
2019-05-13T09:37:37.471Z,90464.00
2019-05-13T09:38:37.481Z,91680.00
2019-05-13T09:39:37.488Z,88640.00
2019-05-13T09:40:37.489Z,87584.00
2019-05-13T09:41:41.069Z,88736.00
2019-05-13T09:42:49.245Z,88960.00
2019-05-13T09:43:37.502Z,88736.00
2019-05-13T09:44:37.504Z,90144.00
2019-05-13T09:45:37.516Z,92192.00
2019-05-13T09:46:37.520Z,91968.00
2019-05-13T09:47:37.527Z,89792.00
2019-05-13T09:48:37.532Z,88064.00
2019-05-13T09:49:37.558Z,87616.00
2019-05-13T09:50:37.557Z,87744.00
2019-05-13T09:51:37.545Z,90208.00
2019-05-13T09:52:39.653Z,88064.00
2019-05-13T09:53:37.558Z,88352.00
2019-05-13T09:54:37.561Z,83456.00
2019-05-13T09:55:37.561Z,82528.00
2019-05-13T09:56:37.574Z,86048.00
2019-05-13T09:57:37.581Z,88736.00
2019-05-13T09:58:37.586Z,88096.00
2019-05-13T09:59:37.590Z,89184.00
2019-05-13T10:00:37.592Z,89664.00
2019-05-13T10:01:37.606Z,89856.00
2019-05-13T10:02:37.608Z,90080.00
2019-05-13T10:03:53.353Z,91008.00
2019-05-13T10:04:37.616Z,92032.00
2019-05-13T10:05:37.623Z,92160.00
2019-05-13T10:06:37.633Z,93568.00
2019-05-13T10:07:37.636Z,93024.00
2019-05-13T10:08:37.639Z,84896.00
2019-05-13T10:09:37.646Z,91200.00
2019-05-13T10:10:37.650Z,92800.00
2019-05-13T10:11:37.659Z,92448.00
2019-05-13T10:12:37.679Z,94016.00
2019-05-13T10:13:37.667Z,91904.00
2019-05-13T10:14:37.678Z,93888.00
2019-05-13T10:15:37.682Z,93824.00
2019-05-13T10:16:37.685Z,94208.00
2019-05-13T10:17:37.701Z,94720.00
2019-05-13T10:18:37.699Z,94112.00
2019-05-13T10:19:37.702Z,95840.00
2019-05-13T10:20:37.708Z,94880.00
2019-05-13T10:21:37.716Z,93440.00
2019-05-13T10:22:37.725Z,88352.00
2019-05-13T10:23:37.726Z,92992.00
2019-05-13T10:24:37.730Z,90720.00
2019-05-13T10:25:37.742Z,90912.00
2019-05-13T10:26:37.741Z,92032.00
2019-05-13T10:27:37.744Z,89920.00
2019-05-13T10:28:37.756Z,91136.00
2019-05-13T10:29:37.762Z,89152.00
2019-05-13T10:30:37.762Z,91712.00
2019-05-13T10:31:37.770Z,89696.00
2019-05-13T10:32:37.792Z,87616.00
2019-05-13T10:33:37.779Z,90688.00
2019-05-13T10:34:37.790Z,89568.00
2019-05-13T10:35:37.794Z,90752.00
2019-05-13T10:36:37.801Z,88032.00
2019-05-13T10:37:37.801Z,87264.00
2019-05-13T10:38:37.809Z,89056.00
2019-05-13T10:39:37.816Z,93568.00
2019-05-13T10:40:37.819Z,94656.00
2019-05-13T10:41:37.824Z,91552.00
2019-05-13T10:42:37.838Z,91040.00
2019-05-13T10:43:41.417Z,89344.00
2019-05-13T10:44:37.844Z,89088.00
2019-05-13T10:45:37.856Z,93280.00
2019-05-13T10:46:37.854Z,92064.00
2019-05-13T10:47:37.876Z,90624.00
2019-05-13T10:48:37.867Z,92352.00
2019-05-13T10:49:37.871Z,90016.00
2019-05-13T10:50:37.881Z,88064.00
2019-05-13T10:51:37.887Z,92544.00
2019-05-13T10:52:37.897Z,95072.00
2019-05-13T10:53:37.896Z,96128.00
2019-05-13T10:54:37.907Z,93504.00
2019-05-13T10:55:37.906Z,95008.00
2019-05-13T10:56:37.918Z,92448.00
2019-05-13T10:57:37.926Z,93920.00
2019-05-13T10:58:37.928Z,94272.00
2019-05-13T10:59:37.935Z,97728.00
2019-05-13T11:00:37.941Z,97792.00
2019-05-13T11:01:37.949Z,96672.00
2019-05-13T11:02:37.966Z,95712.00
2019-05-13T11:03:37.958Z,90976.00
2019-05-13T11:04:37.969Z,93120.00
2019-05-13T11:05:41.166Z,94176.00
2019-05-13T11:06:37.978Z,92160.00
2019-05-13T11:07:37.987Z,88736.00
2019-05-13T11:08:37.995Z,90208.00
2019-05-13T11:09:38.031Z,90912.00
2019-05-13T11:10:38.007Z,95008.00
2019-05-13T11:11:38.010Z,97056.00
2019-05-13T11:12:38.013Z,98112.00
2019-05-13T11:13:52.358Z,98432.00
2019-05-13T11:14:38.027Z,98272.00
2019-05-13T11:15:41.120Z,96768.00
2019-05-13T11:16:38.042Z,96832.00
2019-05-13T11:17:38.051Z,98208.00
2019-05-13T11:18:38.058Z,95808.00
2019-05-13T11:19:38.066Z,96160.00
2019-05-13T11:20:38.071Z,97728.00
2019-05-13T11:21:38.074Z,98432.00
2019-05-13T11:22:38.082Z,99808.00
2019-05-13T11:23:38.086Z,100096.00
2019-05-13T11:24:38.096Z,100704.00
2019-05-13T11:25:38.102Z,101248.00
2019-05-13T11:26:38.104Z,100352.00
2019-05-13T11:27:38.108Z,102624.00
2019-05-13T11:28:38.119Z,105888.00
2019-05-13T11:29:38.125Z,107840.00
2019-05-13T11:30:38.132Z,103392.00
2019-05-13T11:31:38.132Z,100736.00
2019-05-13T11:32:38.142Z,101216.00
2019-05-13T11:33:38.142Z,103968.00
2019-05-13T11:34:38.170Z,102560.00
2019-05-13T11:35:38.163Z,103264.00
2019-05-13T11:36:38.162Z,97664.00
2019-05-13T11:37:38.169Z,100320.00
2019-05-13T11:38:38.176Z,99232.00
2019-05-13T11:39:38.184Z,101056.00
2019-05-13T11:40:38.187Z,104768.00
2019-05-13T11:41:38.200Z,106016.00
2019-05-13T11:42:38.201Z,105056.00
2019-05-13T11:43:38.203Z,104448.00
2019-05-13T11:44:38.214Z,102560.00
2019-05-13T11:45:38.214Z,102240.00
2019-05-13T11:46:38.226Z,102880.00
2019-05-13T11:47:38.228Z,100832.00
2019-05-13T11:48:38.232Z,100768.00
2019-05-13T11:49:38.249Z,101728.00
2019-05-13T11:50:38.248Z,102912.00
2019-05-13T11:51:38.246Z,102976.00
2019-05-13T11:52:38.253Z,102496.00
2019-05-13T11:53:38.507Z,102432.00
2019-05-13T11:54:38.255Z,101312.00
2019-05-13T11:55:38.259Z,99456.00
2019-05-13T11:56:45.350Z,101024.00
2019-05-13T11:57:38.272Z,102112.00
2019-05-13T11:58:38.283Z,103680.00
2019-05-13T11:59:38.284Z,106560.00
2019-05-13T12:00:38.292Z,107968.00
2019-05-13T12:01:38.300Z,106016.00
2019-05-13T12:02:38.302Z,106880.00
2019-05-13T12:03:38.305Z,106784.00
2019-05-13T12:04:38.417Z,106944.00
2019-05-13T12:05:38.322Z,102112.00
2019-05-13T12:06:47.802Z,103584.00
2019-05-13T12:07:38.331Z,103008.00
2019-05-13T12:08:38.326Z,103904.00
2019-05-13T12:09:38.338Z,106144.00
2019-05-13T12:10:38.344Z,106304.00
2019-05-13T12:11:38.342Z,106176.00
2019-05-13T12:12:38.346Z,104000.00